Time;durP1;ratioP1;P1;durP2;ratioP2;P2;SDS_P1;SDS_P2;PMS_P1;PMS_P2;Temp;Humidity;BMP_temperature;BMP_pressure;BME280_temperature;BME280_humidity;BME280_pressure;Samples;Min_cycle;Max_cycle;Signal;HPM_P1;HPM_P2
2022/04/23 00:02:58;;;;;;;51.67;32.03;;;;;;;;;;10473657;28;20048;-67
2022/04/23 00:08:01;;;;;;;40.33;26.08;;;;;;;;;;10477300;28;20045;-68
2022/04/23 00:13:05;;;;;;;50.45;32.08;;;;;;;;;;10479525;28;20048;-67
2022/04/23 00:18:08;;;;;;;53.00;33.45;;;;;;;;;;10481015;28;20041;-67
2022/04/23 00:23:12;;;;;;;50.78;30.52;;;;;;;;;;10479741;28;20079;-67
2022/04/23 00:28:15;;;;;;;47.90;30.08;;;;;;;;;;10479979;28;20049;-68
2022/04/23 00:33:17;;;;;;;49.33;30.15;;;;;;;;;;10479220;28;20044;-68
2022/04/23 00:38:21;;;;;;;52.88;32.42;;;;;;;;;;10479739;28;20083;-68
2022/04/23 00:43:27;;;;;;;59.15;33.92;;;;;;;;;;10478947;28;20301;-68
2022/04/23 00:48:31;;;;;;;50.95;31.95;;;;;;;;;;10476835;28;20197;-67
2022/04/23 00:53:36;;;;;;;53.17;31.95;;;;;;;;;;10477711;28;20041;-67
2022/04/23 00:58:39;;;;;;;52.30;32.30;;;;;;;;;;10479003;28;20045;-67
2022/04/23 01:03:42;;;;;;;50.05;32.13;;;;;;;;;;10477271;28;20056;-67
2022/04/23 01:08:46;;;;;;;51.17;31.30;;;;;;;;;;10478617;28;20049;-70
2022/04/23 01:13:49;;;;;;;55.97;32.83;;;;;;;;;;10480684;28;20049;-67
2022/04/23 01:18:51;;;;;;;59.53;31.85;;;;;;;;;;10478064;28;20335;-66
2022/04/23 01:23:57;;;;;;;52.70;32.20;;;;;;;;;;10477069;28;20335;-67
2022/04/23 01:29:00;;;;;;;52.60;32.80;;;;;;;;;;10478034;28;20162;-67
2022/04/23 01:34:04;;;;;;;52.67;32.83;;;;;;;;;;10477760;28;20041;-67
2022/04/23 01:39:08;;;;;;;52.60;33.80;;;;;;;;;;10476183;28;20040;-67
2022/04/23 01:44:10;;;;;;;54.90;33.20;;;;;;;;;;10477363;28;20053;-67
2022/04/23 01:49:12;;;;;;;54.45;33.25;;;;;;;;;;10477590;28;20053;-67
2022/04/23 01:54:16;;;;;;;50.40;32.92;;;;;;;;;;10464142;28;20307;-68
2022/04/23 01:59:18;;;;;;;56.35;33.70;;;;;;;;;;10477475;28;20037;-67
2022/04/23 02:04:21;;;;;;;57.22;33.88;;;;;;;;;;10477699;28;20041;-67
2022/04/23 02:09:24;;;;;;;52.35;34.75;;;;;;;;;;10475918;28;20053;-68
2022/04/23 02:14:28;;;;;;;55.55;34.17;;;;;;;;;;10477044;28;20040;-69
2022/04/23 02:19:30;;;;;;;49.50;33.28;;;;;;;;;;10476482;28;20060;-68
2022/04/23 02:24:34;;;;;;;56.10;33.35;;;;;;;;;;10476080;28;20182;-68
2022/04/23 02:29:38;;;;;;;57.90;34.45;;;;;;;;;;10473152;28;20051;-68
2022/04/23 02:34:41;;;;;;;58.72;36.35;;;;;;;;;;10474653;28;20057;-68
2022/04/23 02:39:44;;;;;;;74.63;42.17;;;;;;;;;;10476156;28;20248;-68
2022/04/23 02:44:46;;;;;;;68.32;40.15;;;;;;;;;;10476205;28;20071;-68
2022/04/23 02:49:49;;;;;;;76.18;44.45;;;;;;;;;;10474908;28;20057;-67
2022/04/23 02:54:53;;;;;;;80.63;44.85;;;;;;;;;;10474467;28;20402;-67
2022/04/23 02:59:55;;;;;;;80.63;44.63;;;;;;;;;;10475424;28;20059;-68
2022/04/23 03:04:57;;;;;;;71.13;41.80;;;;;;;;;;10473875;28;20033;-68
2022/04/23 03:10:01;;;;;;;70.43;41.63;;;;;;;;;;10476063;28;20049;-68
2022/04/23 03:15:05;;;;;;;71.43;40.15;;;;;;;;;;10473892;28;20049;-68
2022/04/23 03:20:09;;;;;;;68.05;38.83;;;;;;;;;;10464829;28;20390;-68
2022/04/23 03:25:14;;;;;;;67.47;39.03;;;;;;;;;;10472386;28;20061;-67
2022/04/23 03:30:17;;;;;;;61.93;36.83;;;;;;;;;;10473281;28;20083;-67
2022/04/23 03:35:20;;;;;;;62.40;38.17;;;;;;;;;;10471816;28;20294;-67
2022/04/23 03:40:24;;;;;;;65.18;39.65;;;;;;;;;;10472698;28;20076;-68
2022/04/23 03:45:26;;;;;;;61.38;38.22;;;;;;;;;;10472373;28;20095;-67
2022/04/23 03:50:29;;;;;;;56.55;34.38;;;;;;;;;;10472918;28;20045;-69
2022/04/23 03:55:33;;;;;;;52.17;31.65;;;;;;;;;;10472171;28;20048;-69
2022/04/23 04:00:36;;;;;;;46.40;31.77;;;;;;;;;;10472540;28;20053;-68
2022/04/23 04:05:38;;;;;;;50.50;31.55;;;;;;;;;;10472469;28;20045;-68
2022/04/23 04:10:42;;;;;;;44.92;30.70;;;;;;;;;;10472211;28;20291;-68
2022/04/23 04:15:44;;;;;;;41.28;28.27;;;;;;;;;;10470465;28;20391;-67
2022/04/23 04:20:49;;;;;;;42.13;29.63;;;;;;;;;;10471832;28;20061;-68
2022/04/23 04:25:53;;;;;;;37.10;26.55;;;;;;;;;;10431442;28;20248;-68
2022/04/23 04:36:16;;;;;;;27.77;23.35;;;;;;;;;;10433113;28;20057;-67
2022/04/23 04:41:19;;;;;;;25.77;23.08;;;;;;;;;;10472124;28;20355;-68
2022/04/23 04:46:22;;;;;;;27.85;21.80;;;;;;;;;;10469103;28;20048;-68
2022/04/23 04:51:24;;;;;;;23.40;19.15;;;;;;;;;;10470119;28;20056;-67
2022/04/23 04:56:28;;;;;;;21.20;18.13;;;;;;;;;;10477455;28;20041;-68
2022/04/23 05:01:30;;;;;;;;;;;;;;;;;;10476795;28;20057;-68
2022/04/23 05:06:32;;;;;;;17.90;16.00;;;;;;;;;;10479565;28;19924;-67
2022/04/23 05:11:36;;;;;;;17.53;14.20;;;;;;;;;;10473256;28;20056;-68
2022/04/23 05:16:38;;;;;;;14.68;13.18;;;;;;;;;;10477112;28;20037;-68
2022/04/23 05:21:41;;;;;;;18.13;11.73;;;;;;;;;;10477530;28;20052;-68
2022/04/23 05:26:45;;;;;;;13.77;10.15;;;;;;;;;;10476881;28;20049;-67
2022/04/23 05:31:47;;;;;;;11.43;9.95;;;;;;;;;;10475089;28;20286;-69
2022/04/23 05:36:50;;;;;;;11.60;9.05;;;;;;;;;;10462907;28;20236;-69
2022/04/23 05:41:53;;;;;;;10.85;9.75;;;;;;;;;;10475326;28;20045;-68
2022/04/23 05:46:56;;;;;;;13.38;10.27;;;;;;;;;;10474508;28;20095;-68
2022/04/23 05:51:58;;;;;;;9.57;8.13;;;;;;;;;;10477713;28;20044;-68
2022/04/23 05:57:02;;;;;;;10.57;7.22;;;;;;;;;;10476198;28;20340;-67
2022/04/23 06:02:05;;;;;;;8.35;6.68;;;;;;;;;;10474423;28;20264;-68
2022/04/23 06:07:07;;;;;;;8.75;6.50;;;;;;;;;;10478196;28;20068;-67
2022/04/23 06:12:12;;;;;;;8.52;5.70;;;;;;;;;;10475616;28;20324;-68
2022/04/23 06:17:15;;;;;;;7.97;5.78;;;;;;;;;;10473562;28;20037;-67
2022/04/23 06:22:17;;;;;;;7.18;5.38;;;;;;;;;;10473876;28;20068;-69
2022/04/23 06:27:21;;;;;;;5.90;5.30;;;;;;;;;;10491071;28;20029;-70
2022/04/23 06:32:23;;;;;;;6.10;4.55;;;;;;;;;;10473589;28;20044;-70
2022/04/23 06:37:26;;;;;;;5.85;4.05;;;;;;;;;;10474884;28;20328;-67
2022/04/23 06:42:29;;;;;;;5.95;4.05;;;;;;;;;;10475981;28;20340;-69
2022/04/23 06:47:31;;;;;;;6.85;3.70;;;;;;;;;;10470721;28;20083;-68
2022/04/23 06:52:34;;;;;;;7.40;3.53;;;;;;;;;;10463990;28;20332;-67
2022/04/23 06:57:44;;;;;;;5.95;3.10;;;;;;;;;;10468493;28;20041;-68
2022/04/23 07:02:47;;;;;;;4.65;2.75;;;;;;;;;;10488485;28;20249;-68
2022/04/23 07:07:57;;;;;;;3.55;2.90;;;;;;;;;;10474162;28;20056;-69
2022/04/23 07:13:02;;;;;;;5.10;2.70;;;;;;;;;;10472776;28;20068;-69
2022/04/23 07:18:04;;;;;;;3.97;2.50;;;;;;;;;;10472773;28;20286;-69
2022/04/23 07:28:29;;;;;;;3.28;2.67;;;;;;;;;;10474667;28;20056;-69
2022/04/23 07:38:52;;;;;;;4.15;2.53;;;;;;;;;;10473948;28;20053;-68
2022/04/23 07:43:57;;;;;;;4.32;2.70;;;;;;;;;;10473133;28;20040;-69
2022/04/23 07:48:59;;;;;;;2.88;2.67;;;;;;;;;;10472371;28;20061;-70
2022/04/23 07:54:01;;;;;;;10.38;5.20;;;;;;;;;;10473116;28;20041;-69
2022/04/23 07:59:05;;;;;;;4.22;2.83;;;;;;;;;;10473216;28;20379;-68
2022/04/23 08:04:08;;;;;;;3.55;3.15;;;;;;;;;;10473374;28;20064;-67
2022/04/23 08:09:10;;;;;;;4.28;3.13;;;;;;;;;;10469952;28;20041;-69
2022/04/23 08:14:14;;;;;;;6.43;3.42;;;;;;;;;;10460841;28;20043;-69
2022/04/23 08:19:18;;;;;;;6.25;3.20;;;;;;;;;;10462696;28;20332;-68
2022/04/23 08:24:20;;;;;;;5.75;3.22;;;;;;;;;;10458985;28;20062;-70
2022/04/23 08:34:45;;;;;;;7.80;3.90;;;;;;;;;;10493167;28;20044;-70
2022/04/23 08:39:47;;;;;;;4.38;4.03;;;;;;;;;;10465830;28;20056;-69
2022/04/23 08:44:53;;;;;;;4.22;3.97;;;;;;;;;;10467092;28;20353;-68
2022/04/23 08:49:55;;;;;;;5.22;4.18;;;;;;;;;;10501803;28;20060;-67
2022/04/23 08:54:58;;;;;;;3.67;3.30;;;;;;;;;;10475891;28;20331;-70
2022/04/23 09:00:08;;;;;;;5.35;3.00;;;;;;;;;;10473475;28;20256;-68
2022/04/23 09:05:12;;;;;;;2.50;2.22;;;;;;;;;;10477544;28;20053;-68
2022/04/23 09:10:15;;;;;;;2.22;1.88;;;;;;;;;;10477037;28;20222;-68
2022/04/23 09:26:16;;;;;;;1.77;1.65;;;;;;;;;;10458764;28;20056;-66
2022/04/23 09:31:20;;;;;;;2.00;1.70;;;;;;;;;;10493057;28;20049;-70
2022/04/23 09:36:23;;;;;;;2.20;2.00;;;;;;;;;;10477782;28;20056;-69
2022/04/23 09:41:32;;;;;;;6.18;2.92;;;;;;;;;;10473842;28;20051;-66
2022/04/23 09:46:46;;;;;;;5.97;3.65;;;;;;;;;;10476906;28;20040;-67
2022/04/23 09:52:00;;;;;;;4.60;4.07;;;;;;;;;;10479122;28;20245;-69
2022/04/23 09:57:03;;;;;;;5.40;3.80;;;;;;;;;;10459479;28;20241;-67
2022/04/23 10:02:13;;;;;;;4.10;3.80;;;;;;;;;;10474535;28;20045;-67
2022/04/23 10:07:19;;;;;;;5.93;4.40;;;;;;;;;;10490178;28;20048;-67
2022/04/23 10:12:23;;;;;;;4.63;4.20;;;;;;;;;;10475343;28;20044;-71
2022/04/23 10:17:29;;;;;;;4.97;4.63;;;;;;;;;;10472979;28;20067;-69
2022/04/23 10:22:39;;;;;;;8.20;5.00;;;;;;;;;;10474740;28;20111;-68
2022/04/23 10:27:42;;;;;;;5.40;4.90;;;;;;;;;;10474080;28;20049;-68
2022/04/23 10:32:46;;;;;;;7.18;4.70;;;;;;;;;;10476495;28;20040;-68
2022/04/23 10:37:49;;;;;;;6.50;4.70;;;;;;;;;;10476021;28;20041;-69
2022/04/23 10:43:09;;;;;;;7.18;5.47;;;;;;;;;;10467161;28;20048;-68
2022/04/23 10:48:26;;;;;;;5.28;4.72;;;;;;;;;;10474274;28;20099;-70
2022/04/23 10:53:29;;;;;;;5.63;4.88;;;;;;;;;;10452859;28;20049;-69
2022/04/23 10:58:32;;;;;;;4.95;4.45;;;;;;;;;;10466025;28;20043;-68
2022/04/23 11:03:36;;;;;;;10.60;4.33;;;;;;;;;;10476101;28;20053;-68
2022/04/23 11:14:00;;;;;;;5.93;5.38;;;;;;;;;;10473835;28;20052;-70
2022/04/23 11:19:06;;;;;;;5.43;4.93;;;;;;;;;;10475913;28;20099;-70
2022/04/23 11:24:11;;;;;;;4.88;4.32;;;;;;;;;;10465124;28;20271;-68
2022/04/23 11:29:15;;;;;;;7.70;4.95;;;;;;;;;;10465586;28;20356;-68
2022/04/23 11:34:19;;;;;;;5.18;4.40;;;;;;;;;;10433790;28;20053;-68
2022/04/23 11:39:27;;;;;;;;;;;;;;;;;;10444663;28;20049;-69
2022/04/23 11:49:48;;;;;;;5.00;4.55;;;;;;;;;;10433468;28;20055;-68
2022/04/23 11:54:51;;;;;;;6.53;5.15;;;;;;;;;;10462643;28;20049;-69
2022/04/23 12:00:00;;;;;;;7.55;4.80;;;;;;;;;;10473652;28;20087;-69
2022/04/23 12:05:05;;;;;;;11.35;4.50;;;;;;;;;;10486901;28;20051;-69
2022/04/23 12:10:08;;;;;;;5.00;4.60;;;;;;;;;;10478279;28;20045;-69
2022/04/23 12:15:12;;;;;;;5.63;4.47;;;;;;;;;;10473175;28;20056;-69
2022/04/23 12:20:18;;;;;;;5.22;4.28;;;;;;;;;;10474239;28;20045;-73
2022/04/23 12:25:25;;;;;;;7.10;4.90;;;;;;;;;;10472008;28;20076;-68
2022/04/23 12:41:19;;;;;;;4.82;4.25;;;;;;;;;;10481386;28;20059;-67
2022/04/23 12:46:21;;;;;;;4.55;4.13;;;;;;;;;;10473300;28;20049;-68
2022/04/23 12:51:25;;;;;;;4.00;3.70;;;;;;;;;;10471476;28;20351;-68
2022/04/23 12:56:34;;;;;;;;;;;;;;;;;;10473875;28;20229;-68
2022/04/23 13:01:37;;;;;;;4.38;3.97;;;;;;;;;;10472954;28;19917;-67
2022/04/23 13:12:01;;;;;;;4.28;3.97;;;;;;;;;;10485243;28;20251;-69
2022/04/23 13:17:04;;;;;;;6.20;3.80;;;;;;;;;;10437313;28;20403;-68
2022/04/23 13:22:08;;;;;;;8.85;3.78;;;;;;;;;;10451417;28;20052;-68
2022/04/23 13:27:10;;;;;;;8.45;3.97;;;;;;;;;;10492969;28;20037;-68
2022/04/23 13:32:12;;;;;;;5.72;3.67;;;;;;;;;;10461359;28;20099;-68
2022/04/23 13:37:16;;;;;;;5.22;4.10;;;;;;;;;;10463302;28;20048;-71
2022/04/23 13:42:18;;;;;;;3.90;3.50;;;;;;;;;;10453635;28;20045;-67
2022/04/23 13:47:21;;;;;;;6.47;4.00;;;;;;;;;;10480201;28;20270;-68
2022/04/23 13:52:25;;;;;;;4.38;3.97;;;;;;;;;;10478028;28;20098;-68
2022/04/23 13:57:27;;;;;;;6.80;4.10;;;;;;;;;;10478144;28;20056;-70
2022/04/23 14:13:10;;;;;;;10.95;5.00;;;;;;;;;;10476238;28;20060;-68
2022/04/23 14:18:13;;;;;;;12.23;6.90;;;;;;;;;;10475585;28;20083;-68
2022/04/23 14:23:17;;;;;;;5.65;5.10;;;;;;;;;;10468888;28;20061;-67
2022/04/23 14:28:21;;;;;;;4.70;4.30;;;;;;;;;;10480548;28;20056;-68
2022/04/23 14:33:24;;;;;;;4.82;4.45;;;;;;;;;;10475974;28;20040;-69
2022/04/23 14:38:28;;;;;;;7.60;4.97;;;;;;;;;;10476811;28;20347;-68
2022/04/23 14:43:31;;;;;;;5.10;4.70;;;;;;;;;;10475101;28;20077;-68
2022/04/23 14:48:33;;;;;;;4.75;4.35;;;;;;;;;;10476418;28;20049;-67
2022/04/23 14:53:37;;;;;;;5.22;4.40;;;;;;;;;;10471329;28;20047;-68
2022/04/23 14:58:39;;;;;;;7.78;4.60;;;;;;;;;;10475225;28;20045;-68
2022/04/23 15:03:43;;;;;;;4.88;3.97;;;;;;;;;;10475837;28;20069;-68
2022/04/23 15:08:48;;;;;;;5.32;4.25;;;;;;;;;;10474925;28;20078;-69
2022/04/23 15:13:50;;;;;;;6.73;3.93;;;;;;;;;;10474050;28;20389;-68
2022/04/23 15:18:53;;;;;;;4.90;3.72;;;;;;;;;;10475536;28;20619;-68
2022/04/23 15:23:57;;;;;;;8.23;3.70;;;;;;;;;;10472342;28;20060;-68
2022/04/23 15:28:59;;;;;;;4.25;3.80;;;;;;;;;;10433872;28;20052;-69
2022/04/23 15:34:01;;;;;;;6.97;4.20;;;;;;;;;;10475476;28;20051;-68
2022/04/23 15:39:06;;;;;;;6.93;4.28;;;;;;;;;;10454669;28;20087;-69
2022/04/23 15:44:09;;;;;;;5.60;4.20;;;;;;;;;;10433700;28;20045;-69
2022/04/23 15:49:11;;;;;;;4.72;4.32;;;;;;;;;;10432685;28;20053;-67
2022/04/23 15:54:15;;;;;;;6.90;4.45;;;;;;;;;;10432378;28;20049;-68
2022/04/23 15:59:17;;;;;;;7.13;4.40;;;;;;;;;;10451126;28;20107;-69
2022/04/23 16:04:20;;;;;;;3.58;3.28;;;;;;;;;;10470938;28;20048;-74
2022/04/23 16:09:26;;;;;;;6.47;2.92;;;;;;;;;;10473610;28;20055;-72
2022/04/23 16:14:28;;;;;;;18.73;4.43;;;;;;;;;;10487704;28;20068;-68
2022/04/23 16:19:31;;;;;;;5.40;3.30;;;;;;;;;;10474170;28;20056;-69
2022/04/23 16:24:35;;;;;;;5.32;3.13;;;;;;;;;;10475051;28;20111;-68
2022/04/23 16:29:37;;;;;;;5.75;3.63;;;;;;;;;;10472083;28;20244;-67
2022/04/23 16:34:40;;;;;;;3.35;3.05;;;;;;;;;;10473601;28;20044;-67
2022/04/23 16:50:24;;;;;;;7.80;3.38;;;;;;;;;;10476593;28;20063;-70
2022/04/23 16:55:27;;;;;;;3.60;3.10;;;;;;;;;;10480989;28;20044;-69
2022/04/23 17:00:30;;;;;;;6.03;3.80;;;;;;;;;;10478714;28;20357;-73
2022/04/23 17:05:33;;;;;;;4.93;3.50;;;;;;;;;;10477919;28;20040;-69
2022/04/23 17:10:37;;;;;;;6.20;3.35;;;;;;;;;;10481093;28;20041;-68
2022/04/23 17:15:40;;;;;;;7.53;3.67;;;;;;;;;;10480507;28;20304;-68
2022/04/23 17:20:42;;;;;;;7.53;3.58;;;;;;;;;;10478112;28;20048;-68
2022/04/23 17:25:47;;;;;;;4.40;3.25;;;;;;;;;;10478318;28;20068;-68
2022/04/23 17:30:49;;;;;;;4.57;3.80;;;;;;;;;;10480059;28;20087;-69
2022/04/23 17:35:52;;;;;;;4.95;3.50;;;;;;;;;;10477984;28;20049;-68
2022/04/23 17:40:55;;;;;;;4.20;3.45;;;;;;;;;;10450128;28;20106;-68
2022/04/23 17:45:58;;;;;;;5.00;3.35;;;;;;;;;;10479371;28;20232;-68
2022/04/23 17:51:00;;;;;;;4.32;3.72;;;;;;;;;;10475791;28;20221;-69
2022/04/23 17:56:05;;;;;;;7.95;3.92;;;;;;;;;;10452538;28;20064;-69
2022/04/23 18:11:45;;;;;;;7.50;4.05;;;;;;;;;;10451263;28;20057;-69
2022/04/23 18:16:48;;;;;;;7.20;4.53;;;;;;;;;;10477017;28;20045;-68
2022/04/23 18:21:51;;;;;;;5.65;5.03;;;;;;;;;;10475436;28;20052;-69
2022/04/23 18:26:55;;;;;;;7.45;5.10;;;;;;;;;;10471071;28;20071;-70
2022/04/23 18:31:57;;;;;;;8.25;5.30;;;;;;;;;;10466521;28;20051;-68
2022/04/23 18:37:00;;;;;;;7.55;6.63;;;;;;;;;;10476687;28;20049;-68
2022/04/23 18:42:04;;;;;;;9.52;6.18;;;;;;;;;;10476055;28;20041;-67
2022/04/23 18:47:08;;;;;;;10.13;5.88;;;;;;;;;;10477109;28;20068;-68
2022/04/23 18:52:11;;;;;;;15.50;6.80;;;;;;;;;;10475988;28;20048;-69
2022/04/23 18:57:14;;;;;;;13.63;7.90;;;;;;;;;;10474761;28;20041;-69
2022/04/23 19:02:19;;;;;;;11.75;7.63;;;;;;;;;;10472398;28;20044;-67
2022/04/23 19:07:21;;;;;;;13.95;9.02;;;;;;;;;;10474084;28;20044;-68
2022/04/23 19:12:25;;;;;;;12.02;7.78;;;;;;;;;;10474640;28;20240;-68
2022/04/23 19:17:27;;;;;;;13.05;7.75;;;;;;;;;;10475410;28;20041;-68
2022/04/23 19:27:53;;;;;;;13.75;9.25;;;;;;;;;;10475538;28;20049;-68
2022/04/23 19:32:56;;;;;;;20.95;9.98;;;;;;;;;;10474832;28;20402;-67
2022/04/23 19:37:58;;;;;;;16.63;10.30;;;;;;;;;;10464343;28;20060;-68
2022/04/23 19:43:02;;;;;;;17.88;9.85;;;;;;;;;;10475283;28;20095;-69
2022/04/23 19:48:05;;;;;;;20.02;8.50;;;;;;;;;;10473569;28;20247;-68
2022/04/23 19:53:07;;;;;;;11.63;8.32;;;;;;;;;;10449661;28;20320;-68
2022/04/23 19:58:11;;;;;;;13.95;8.32;;;;;;;;;;10437875;28;20053;-69
2022/04/23 20:03:13;;;;;;;13.70;9.07;;;;;;;;;;10470003;28;20047;-68
2022/04/23 20:08:16;;;;;;;16.27;9.27;;;;;;;;;;10474343;28;20091;-68
2022/04/23 20:13:20;;;;;;;20.10;12.40;;;;;;;;;;10470948;28;20045;-68
2022/04/23 20:18:22;;;;;;;16.67;9.57;;;;;;;;;;10472712;28;20052;-69
2022/04/23 20:23:25;;;;;;;16.17;10.07;;;;;;;;;;10475582;28;20121;-66
2022/04/23 20:29:04;;;;;;;14.50;8.82;;;;;;;;;;10482664;28;20049;-68
2022/04/23 20:33:54;;;;;;;15.10;10.27;;;;;;;;;;10471858;28;20052;-68
2022/04/23 20:38:57;;;;;;;14.10;10.52;;;;;;;;;;10481568;28;20063;-68
2022/04/23 20:44:02;;;;;;;16.10;10.23;;;;;;;;;;10480937;28;20213;-68
2022/04/23 20:49:04;;;;;;;15.35;10.38;;;;;;;;;;10480118;28;20044;-67
2022/04/23 20:54:08;;;;;;;17.90;10.07;;;;;;;;;;10481303;28;20065;-68
2022/04/23 20:59:13;;;;;;;17.38;10.25;;;;;;;;;;10480239;28;20235;-68
2022/04/23 21:04:15;;;;;;;14.97;9.83;;;;;;;;;;10480148;28;20056;-67
2022/04/23 21:09:17;;;;;;;15.13;9.38;;;;;;;;;;10483592;28;20052;-68
2022/04/23 21:14:21;;;;;;;19.02;10.35;;;;;;;;;;10457863;28;20049;-68
2022/04/23 21:19:23;;;;;;;25.75;10.23;;;;;;;;;;10478174;28;20041;-69
2022/04/23 21:24:26;;;;;;;12.48;9.63;;;;;;;;;;10479428;28;20106;-70
2022/04/23 21:29:30;;;;;;;13.93;10.27;;;;;;;;;;10467771;28;20099;-69
2022/04/23 21:34:32;;;;;;;19.42;11.23;;;;;;;;;;10472516;28;20236;-68
2022/04/23 21:39:34;;;;;;;17.33;11.45;;;;;;;;;;10477728;28;20053;-68
2022/04/23 21:44:50;;;;;;;20.67;12.00;;;;;;;;;;10477688;28;20057;-68
2022/04/23 21:49:52;;;;;;;17.70;11.05;;;;;;;;;;10490449;28;20036;-67
2022/04/23 21:54:55;;;;;;;19.75;11.50;;;;;;;;;;10440525;28;20041;-68
2022/04/23 21:59:59;;;;;;;16.88;11.18;;;;;;;;;;10473633;28;20231;-67
2022/04/23 22:05:02;;;;;;;18.00;11.65;;;;;;;;;;10477331;28;20087;-67
2022/04/23 22:10:05;;;;;;;19.33;12.48;;;;;;;;;;10450211;28;20056;-68
2022/04/23 22:15:10;;;;;;;21.90;13.23;;;;;;;;;;10474585;28;20052;-67
2022/04/23 22:20:13;;;;;;;21.60;13.93;;;;;;;;;;10477155;28;20045;-68
2022/04/23 22:25:16;;;;;;;30.00;15.93;;;;;;;;;;10474322;28;20067;-68
2022/04/23 22:30:21;;;;;;;28.42;17.40;;;;;;;;;;10477785;28;20037;-67
2022/04/23 22:35:23;;;;;;;25.43;17.30;;;;;;;;;;10477119;28;20356;-68
2022/04/23 22:40:26;;;;;;;28.75;16.85;;;;;;;;;;10452637;28;20046;-69
2022/04/23 22:45:31;;;;;;;30.42;16.63;;;;;;;;;;10468046;28;20057;-67
2022/04/23 22:50:33;;;;;;;37.38;18.13;;;;;;;;;;10475930;28;20044;-68
2022/04/23 22:55:36;;;;;;;33.42;18.88;;;;;;;;;;10476493;28;20055;-68
2022/04/23 23:00:39;;;;;;;35.15;22.35;;;;;;;;;;10450932;28;20357;-68
2022/04/23 23:05:42;;;;;;;37.22;21.50;;;;;;;;;;10457968;28;20052;-67
2022/04/23 23:10:45;;;;;;;41.10;24.92;;;;;;;;;;10473889;28;20040;-68
2022/04/23 23:15:49;;;;;;;30.33;20.73;;;;;;;;;;10474725;28;20065;-68
2022/04/23 23:20:51;;;;;;;30.98;19.83;;;;;;;;;;10439488;28;20274;-68
2022/04/23 23:25:54;;;;;;;27.70;18.83;;;;;;;;;;10473921;28;20053;-68
2022/04/23 23:30:58;;;;;;;35.35;20.67;;;;;;;;;;10473311;28;20045;-68
2022/04/23 23:36:00;;;;;;;41.08;23.25;;;;;;;;;;10473360;28;20082;-67
2022/04/23 23:41:02;;;;;;;41.15;23.92;;;;;;;;;;10473866;28;20041;-67
2022/04/23 23:46:06;;;;;;;42.33;24.42;;;;;;;;;;10472981;28;20045;-67
2022/04/23 23:51:08;;;;;;;37.22;23.10;;;;;;;;;;10472815;28;20106;-68
2022/04/23 23:56:10;;;;;;;46.45;28.15;;;;;;;;;;10473244;28;20381;-67
